createdAt,value
2023-02-11T00:00:21.377Z,12.95
2023-02-11T00:02:48.273Z,12.07
2023-02-11T00:05:15.412Z,11.70
2023-02-11T00:07:42.180Z,12.57
2023-02-11T00:10:09.387Z,12.70
2023-02-11T00:12:36.922Z,12.43
2023-02-11T00:15:04.562Z,12.50
2023-02-11T00:17:32.357Z,12.70
2023-02-11T00:19:59.146Z,12.45
2023-02-11T00:22:25.880Z,13.57
2023-02-11T00:24:53.329Z,12.48
2023-02-11T00:27:20.102Z,13.27
2023-02-11T00:29:46.918Z,13.23
2023-02-11T00:32:13.692Z,13.15
2023-02-11T00:34:40.462Z,12.95
2023-02-11T00:37:07.233Z,13.45
2023-02-11T00:39:33.988Z,13.30
2023-02-11T00:42:00.799Z,13.63
2023-02-11T00:44:27.531Z,14.13
2023-02-11T00:46:54.306Z,14.27
2023-02-11T00:49:21.076Z,14.80
2023-02-11T00:51:47.859Z,13.90
2023-02-11T00:54:14.569Z,13.95
2023-02-11T00:56:41.380Z,13.65
2023-02-11T00:59:08.227Z,14.20
2023-02-11T01:01:35.643Z,14.77
2023-02-11T01:04:02.478Z,14.07
2023-02-11T01:06:29.210Z,15.27
2023-02-11T01:08:56.002Z,14.57
2023-02-11T01:11:22.821Z,14.73
2023-02-11T01:13:49.925Z,15.70
2023-02-11T01:16:16.910Z,14.90
2023-02-11T01:18:44.512Z,15.38
2023-02-11T01:21:11.535Z,14.98
2023-02-11T01:23:38.368Z,15.43
2023-02-11T01:26:05.457Z,16.08
2023-02-11T01:28:32.289Z,15.47
2023-02-11T01:31:00.651Z,16.52
2023-02-11T01:33:27.550Z,16.70
2023-02-11T01:35:54.347Z,15.07
2023-02-11T01:38:25.616Z,15.63
2023-02-11T01:41:00.247Z,15.07
2023-02-11T01:43:27.853Z,15.63
2023-02-11T01:46:13.777Z,15.32
2023-02-11T01:48:45.900Z,16.00
2023-02-11T01:51:31.264Z,15.60
2023-02-11T01:54:16.555Z,15.73
2023-02-11T01:57:06.738Z,15.68
2023-02-11T01:59:44.521Z,15.95
2023-02-11T02:02:12.720Z,15.82
2023-02-11T02:04:48.646Z,17.20
2023-02-11T02:07:20.115Z,15.97
2023-02-11T02:09:50.076Z,15.98
2023-02-11T02:12:16.842Z,16.23
2023-02-11T02:14:43.592Z,16.63
2023-02-11T02:17:37.788Z,17.67
2023-02-11T02:20:04.500Z,15.40
2023-02-11T02:22:54.823Z,16.40
2023-02-11T02:25:43.194Z,15.68
2023-02-11T02:28:47.187Z,15.68
2023-02-11T02:31:39.028Z,15.68
2023-02-11T02:34:09.574Z,16.17
2023-02-11T02:37:11.157Z,16.20
2023-02-11T02:39:37.958Z,16.90
2023-02-11T02:42:05.028Z,16.48
2023-02-11T02:44:31.822Z,16.55
2023-02-11T02:46:58.695Z,16.77
2023-02-11T02:49:25.550Z,16.60
2023-02-11T02:52:13.882Z,16.63
2023-02-11T02:55:02.493Z,17.65
2023-02-11T02:57:53.885Z,17.13
2023-02-11T03:00:52.246Z,16.53
2023-02-11T03:03:37.731Z,16.63
2023-02-11T03:06:11.814Z,16.70
2023-02-11T03:08:47.000Z,16.25
2023-02-11T03:11:15.815Z,17.55
2023-02-11T03:13:42.722Z,16.67
2023-02-11T03:16:12.531Z,16.48
2023-02-11T03:18:41.250Z,16.33
2023-02-11T03:21:08.890Z,17.00
2023-02-11T03:23:57.488Z,16.70
2023-02-11T03:26:49.251Z,15.30
2023-02-11T03:29:54.677Z,15.57
2023-02-11T03:32:28.372Z,14.88
2023-02-11T03:35:00.315Z,15.65
2023-02-11T03:37:41.271Z,15.50
2023-02-11T03:40:08.269Z,15.83
2023-02-11T03:43:05.534Z,15.73
2023-02-11T03:45:32.376Z,14.40
2023-02-11T03:48:26.362Z,15.00
2023-02-11T03:50:53.134Z,14.10
2023-02-11T03:53:20.757Z,14.37
2023-02-11T03:55:48.060Z,14.32
2023-02-11T03:58:15.102Z,15.27
2023-02-11T04:00:42.772Z,14.48
2023-02-11T04:03:09.745Z,14.55
2023-02-11T04:05:36.652Z,13.50
2023-02-11T04:08:03.622Z,14.60
2023-02-11T04:10:30.463Z,13.75
2023-02-11T04:12:57.276Z,14.25
2023-02-11T04:15:24.213Z,12.70
2023-02-11T04:17:51.216Z,13.27
2023-02-11T04:20:18.066Z,13.73
2023-02-11T04:22:44.862Z,12.95
2023-02-11T04:25:11.691Z,11.73
2023-02-11T04:27:38.587Z,12.32
2023-02-11T04:30:06.096Z,12.70
2023-02-11T04:32:32.882Z,12.68
2023-02-11T04:34:59.674Z,12.23
2023-02-11T04:37:26.463Z,11.82
2023-02-11T04:39:53.263Z,11.82
2023-02-11T04:42:20.055Z,11.63
2023-02-11T04:44:46.854Z,11.25
2023-02-11T04:47:15.350Z,11.18
2023-02-11T04:49:42.456Z,11.32
2023-02-11T04:52:09.392Z,10.85
2023-02-11T04:54:36.196Z,11.10
2023-02-11T04:57:03.111Z,10.63
2023-02-11T04:59:29.917Z,10.65
2023-02-11T05:01:56.989Z,10.88
2023-02-11T05:04:23.880Z,10.18
2023-02-11T05:06:50.757Z,10.80
2023-02-11T05:09:17.839Z,9.98
2023-02-11T05:11:44.658Z,10.00
2023-02-11T05:14:11.481Z,9.85
2023-02-11T05:16:38.357Z,10.38
2023-02-11T05:19:05.203Z,9.23
2023-02-11T05:21:32.042Z,9.35
2023-02-11T05:23:58.925Z,9.50
2023-02-11T05:26:25.919Z,9.23
2023-02-11T05:28:52.703Z,9.07
2023-02-11T05:31:19.591Z,8.60
2023-02-11T05:33:46.502Z,9.27
2023-02-11T05:36:13.622Z,8.73
2023-02-11T05:38:40.812Z,8.90
2023-02-11T05:41:07.628Z,8.65
2023-02-11T05:43:37.252Z,8.90
2023-02-11T05:46:04.635Z,8.15
2023-02-11T05:48:31.609Z,7.85
2023-02-11T05:50:58.455Z,8.48
2023-02-11T05:53:25.265Z,7.88
2023-02-11T05:55:52.427Z,8.20
2023-02-11T05:58:19.399Z,8.00
2023-02-11T06:00:46.214Z,8.00
2023-02-11T06:03:13.089Z,7.95
2023-02-11T06:05:39.917Z,7.10
2023-02-11T06:08:06.770Z,7.80
2023-02-11T06:10:33.551Z,8.07
2023-02-11T06:13:01.254Z,7.88
2023-02-11T06:15:28.140Z,7.20
2023-02-11T06:17:54.893Z,7.50
2023-02-11T06:20:21.784Z,7.20
2023-02-11T06:22:48.588Z,7.35
2023-02-11T06:25:15.426Z,7.43
2023-02-11T06:27:42.235Z,7.88
2023-02-11T06:30:09.477Z,7.72
2023-02-11T06:32:43.960Z,7.00
2023-02-11T06:35:12.563Z,7.28
2023-02-11T06:37:40.279Z,7.20
2023-02-11T06:40:07.209Z,8.38
2023-02-11T06:42:34.715Z,7.07
2023-02-11T06:45:01.569Z,7.23
2023-02-11T06:47:28.326Z,6.78
2023-02-11T06:49:55.155Z,7.60
2023-02-11T06:52:21.957Z,7.13
2023-02-11T06:54:48.758Z,7.38
2023-02-11T06:57:15.554Z,7.47
2023-02-11T06:59:42.366Z,7.63
2023-02-11T07:02:12.428Z,7.60
2023-02-11T07:04:39.289Z,7.00
2023-02-11T07:07:06.191Z,7.43
2023-02-11T07:09:32.986Z,7.80
2023-02-11T07:11:59.854Z,8.23
2023-02-11T07:14:26.729Z,8.05
2023-02-11T07:16:53.495Z,7.53
2023-02-11T07:19:20.265Z,7.20
2023-02-11T07:21:48.730Z,7.40
2023-02-11T07:24:15.799Z,7.15
2023-02-11T07:26:42.644Z,7.20
2023-02-11T07:29:09.433Z,6.43
2023-02-11T07:31:36.382Z,6.30
2023-02-11T07:34:03.386Z,6.83
2023-02-11T07:36:31.991Z,6.20
2023-02-11T07:39:00.153Z,6.38
2023-02-11T07:41:27.266Z,6.53
2023-02-11T07:43:54.158Z,6.03
2023-02-11T07:46:23.039Z,6.03
2023-02-11T07:48:49.876Z,6.20
2023-02-11T07:51:21.716Z,5.72
2023-02-11T07:53:48.569Z,6.10
2023-02-11T07:56:15.968Z,5.28
2023-02-11T07:58:43.261Z,5.20
2023-02-11T08:01:25.978Z,5.05
2023-02-11T08:03:52.920Z,5.20
2023-02-11T08:06:20.533Z,5.07
2023-02-11T08:08:47.638Z,5.05
2023-02-11T08:11:16.484Z,5.50
2023-02-11T08:13:43.335Z,5.00
2023-02-11T08:16:10.602Z,5.40
2023-02-11T08:18:37.409Z,5.00
2023-02-11T08:21:08.452Z,5.15
2023-02-11T08:23:42.262Z,4.83
2023-02-11T08:26:11.875Z,4.50
2023-02-11T08:28:39.470Z,4.20
2023-02-11T08:31:07.754Z,4.50
2023-02-11T08:33:34.801Z,4.40
2023-02-11T08:36:02.373Z,4.47
2023-02-11T08:38:29.146Z,3.90
2023-02-11T08:40:55.969Z,4.00
2023-02-11T08:43:23.656Z,3.58
2023-02-11T08:45:50.797Z,3.72
2023-02-11T08:48:17.756Z,4.10
2023-02-11T08:50:44.557Z,3.65
2023-02-11T08:53:11.388Z,3.80
2023-02-11T08:55:38.178Z,3.55
2023-02-11T08:58:05.120Z,3.67
2023-02-11T09:00:31.989Z,3.40
2023-02-11T09:02:59.128Z,3.35
2023-02-11T09:05:25.992Z,3.58
2023-02-11T09:07:52.748Z,3.50
2023-02-11T09:10:19.789Z,2.50
2023-02-11T09:12:46.568Z,2.93
2023-02-11T09:15:13.568Z,3.15
2023-02-11T09:17:40.331Z,3.30
2023-02-11T09:20:09.823Z,3.10
2023-02-11T09:22:37.529Z,3.13
2023-02-11T09:25:04.353Z,3.07
2023-02-11T09:27:31.129Z,3.20
2023-02-11T09:29:57.908Z,3.00
2023-02-11T09:32:24.729Z,2.95
2023-02-11T09:34:51.532Z,2.90
2023-02-11T09:37:18.338Z,2.67
2023-02-11T09:39:46.292Z,2.70
2023-02-11T09:42:12.997Z,2.55
2023-02-11T09:44:39.925Z,2.30
2023-02-11T09:47:27.086Z,2.10
2023-02-11T09:50:35.901Z,2.17
2023-02-11T09:53:26.009Z,1.80
2023-02-11T09:55:57.122Z,1.90
2023-02-11T09:58:23.795Z,2.05
2023-02-11T10:00:59.556Z,1.80
2023-02-11T10:03:29.071Z,1.60
2023-02-11T10:06:10.919Z,2.10
2023-02-11T10:09:02.475Z,1.90
2023-02-11T10:11:56.189Z,1.90
2023-02-11T10:14:48.626Z,2.20
2023-02-11T10:17:28.091Z,2.17
2023-02-11T10:19:57.666Z,2.20
2023-02-11T10:22:36.890Z,1.70
2023-02-11T10:25:27.968Z,1.80
2023-02-11T10:27:56.199Z,1.75
2023-02-11T10:30:36.775Z,1.70
2023-02-11T10:33:04.878Z,1.80
2023-02-11T10:35:31.810Z,1.60
2023-02-11T10:37:59.476Z,1.70
2023-02-11T10:40:27.813Z,1.90
2023-02-11T10:42:57.725Z,1.90
2023-02-11T10:45:34.995Z,2.13
2023-02-11T10:48:03.533Z,2.03
2023-02-11T10:50:33.529Z,2.10
2023-02-11T10:53:21.102Z,2.20
2023-02-11T10:55:55.415Z,2.70
2023-02-11T10:58:28.654Z,2.80
2023-02-11T11:00:56.532Z,2.70
2023-02-11T11:03:24.503Z,2.70
2023-02-11T11:06:08.761Z,3.20
2023-02-11T11:08:49.593Z,3.10
2023-02-11T11:11:17.995Z,2.75
2023-02-11T11:13:59.289Z,2.88
2023-02-11T11:16:35.381Z,2.97
2023-02-11T11:19:08.252Z,3.47
2023-02-11T11:21:41.912Z,3.63
2023-02-11T11:24:17.852Z,3.45
2023-02-11T11:26:49.533Z,3.55
2023-02-11T11:29:27.038Z,4.30
2023-02-11T11:32:04.451Z,3.88
2023-02-11T11:34:37.306Z,3.57
2023-02-11T11:37:11.836Z,3.42
2023-02-11T11:39:39.181Z,3.60
2023-02-11T11:42:33.333Z,3.60
2023-02-11T11:45:24.877Z,3.13
2023-02-11T11:47:59.130Z,3.63
2023-02-11T11:50:49.469Z,4.10
2023-02-11T11:53:21.309Z,3.50
2023-02-11T11:56:08.143Z,3.42
2023-02-11T11:58:34.990Z,3.38
2023-02-11T12:01:39.330Z,3.27
2023-02-11T12:04:30.785Z,3.70
2023-02-11T12:07:35.347Z,3.25
2023-02-11T12:10:14.524Z,3.10
2023-02-11T12:12:46.785Z,3.70
2023-02-11T12:15:51.249Z,3.87
2023-02-11T12:18:23.352Z,3.65
2023-02-11T12:21:12.984Z,3.55
2023-02-11T12:23:55.531Z,3.45
2023-02-11T12:26:32.225Z,3.15
2023-02-11T12:29:17.326Z,3.47
2023-02-11T12:31:49.954Z,3.25
2023-02-11T12:34:22.760Z,2.92
2023-02-11T12:36:54.581Z,3.65
2023-02-11T12:39:42.547Z,3.88
2023-02-11T12:42:44.208Z,4.07
2023-02-11T12:45:19.348Z,3.25
2023-02-11T12:48:05.682Z,3.10
2023-02-11T12:50:45.473Z,3.50
2023-02-11T12:53:41.710Z,3.42
2023-02-11T12:56:31.643Z,3.87
2023-02-11T12:58:59.658Z,3.30
2023-02-11T13:01:28.088Z,3.00
2023-02-11T13:03:56.467Z,3.42
2023-02-11T13:06:28.941Z,3.80
2023-02-11T13:09:06.196Z,3.67
2023-02-11T13:11:39.718Z,3.55
2023-02-11T13:14:32.841Z,3.78
2023-02-11T13:16:59.910Z,3.53
2023-02-11T13:19:43.476Z,3.97
2023-02-11T13:22:31.938Z,3.57
2023-02-11T13:25:02.843Z,3.65
2023-02-11T13:27:47.934Z,2.90
2023-02-11T13:30:33.992Z,3.05
2023-02-11T13:33:01.141Z,3.33
2023-02-11T13:35:41.538Z,3.37
2023-02-11T13:38:28.192Z,3.10
2023-02-11T13:41:17.384Z,3.72
2023-02-11T13:43:44.210Z,3.65
2023-02-11T13:46:12.148Z,2.85
2023-02-11T13:48:57.459Z,2.93
2023-02-11T13:51:43.134Z,3.30
2023-02-11T13:54:19.047Z,2.42
2023-02-11T13:56:46.452Z,3.20
2023-02-11T13:59:25.469Z,3.20
2023-02-11T14:02:25.065Z,3.00
2023-02-11T14:05:42.487Z,3.38
2023-02-11T14:08:30.604Z,3.30
2023-02-11T14:11:00.348Z,3.63
2023-02-11T14:13:28.176Z,2.88
2023-02-11T14:16:37.456Z,3.33
2023-02-11T14:19:06.534Z,2.92
2023-02-11T14:21:40.510Z,3.55
2023-02-11T14:24:13.068Z,3.55
2023-02-11T14:27:07.817Z,3.28
2023-02-11T14:29:37.395Z,3.53
2023-02-11T14:32:49.219Z,3.33
2023-02-11T14:35:49.473Z,3.13
2023-02-11T14:38:54.841Z,3.33
2023-02-11T14:41:26.460Z,3.70
2023-02-11T14:44:01.340Z,3.80
2023-02-11T14:46:30.358Z,3.35
2023-02-11T14:48:58.836Z,3.90
2023-02-11T14:51:36.241Z,3.60
2023-02-11T14:54:25.331Z,3.60
2023-02-11T14:57:15.275Z,2.90
2023-02-11T15:00:04.263Z,3.42
2023-02-11T15:02:36.442Z,3.25
2023-02-11T15:05:22.932Z,3.40
2023-02-11T15:07:54.921Z,3.10
2023-02-11T15:10:43.680Z,3.83
2023-02-11T15:13:21.694Z,2.65
2023-02-11T15:15:48.805Z,3.35
2023-02-11T15:18:22.890Z,4.05
2023-02-11T15:20:50.357Z,3.50
2023-02-11T15:23:22.683Z,3.53
2023-02-11T15:25:55.620Z,3.50
2023-02-11T15:28:29.095Z,3.28
2023-02-11T15:31:04.082Z,3.15
2023-02-11T15:33:32.419Z,2.85
2023-02-11T15:36:00.298Z,3.53
2023-02-11T15:38:27.129Z,2.88
2023-02-11T15:41:04.440Z,2.78
2023-02-11T15:43:51.941Z,3.40
2023-02-11T15:46:20.131Z,3.08
2023-02-11T15:48:52.337Z,3.30
2023-02-11T15:51:23.313Z,2.92
2023-02-11T15:54:11.163Z,2.80
2023-02-11T15:56:45.125Z,2.80
2023-02-11T15:59:35.439Z,3.05
2023-02-11T16:02:14.163Z,2.93
2023-02-11T16:04:51.811Z,2.80
2023-02-11T16:07:52.539Z,2.75
2023-02-11T16:10:24.180Z,2.97
2023-02-11T16:12:55.877Z,2.47
2023-02-11T16:15:39.721Z,2.77
2023-02-11T16:18:38.674Z,2.30
2023-02-11T16:21:11.918Z,2.22
2023-02-11T16:23:39.879Z,2.85
2023-02-11T16:26:21.275Z,2.60
2023-02-11T16:28:48.342Z,2.50
2023-02-11T16:31:15.328Z,2.30
2023-02-11T16:33:42.181Z,2.45
2023-02-11T16:36:17.280Z,2.20
2023-02-11T16:38:44.167Z,2.42
2023-02-11T16:41:12.877Z,2.57
2023-02-11T16:43:40.309Z,2.42
2023-02-11T16:46:07.197Z,2.90
2023-02-11T16:48:34.800Z,2.33
2023-02-11T16:51:01.657Z,2.35
2023-02-11T16:53:28.540Z,2.00
2023-02-11T16:55:55.422Z,2.22
2023-02-11T16:58:22.239Z,2.10
2023-02-11T17:00:49.338Z,2.00
2023-02-11T17:03:22.291Z,1.75
2023-02-11T17:05:55.335Z,2.00
2023-02-11T17:08:22.831Z,2.08
2023-02-11T17:10:50.312Z,2.00
2023-02-11T17:13:17.320Z,1.92
2023-02-11T17:15:44.120Z,1.90
2023-02-11T17:18:14.060Z,2.10
2023-02-11T17:20:41.428Z,1.73
2023-02-11T17:23:08.388Z,1.88
2023-02-11T17:25:37.451Z,1.70
2023-02-11T17:28:08.890Z,1.73
2023-02-11T17:30:35.777Z,1.60
2023-02-11T17:33:02.599Z,1.60
2023-02-11T17:35:29.464Z,1.63
2023-02-11T17:37:58.112Z,1.83
2023-02-11T17:40:25.010Z,1.70
2023-02-11T17:42:51.878Z,1.40
2023-02-11T17:45:21.189Z,1.88
2023-02-11T17:47:49.589Z,1.42
2023-02-11T17:50:16.522Z,1.50
2023-02-11T17:52:43.426Z,1.60
2023-02-11T17:55:10.278Z,1.60
2023-02-11T17:57:37.375Z,1.10
2023-02-11T18:00:05.535Z,1.23
2023-02-11T18:02:32.462Z,1.20
2023-02-11T18:04:59.372Z,1.40
2023-02-11T18:07:26.495Z,1.20
2023-02-11T18:09:53.453Z,1.40
2023-02-11T18:12:25.362Z,1.30
2023-02-11T18:14:58.209Z,1.50
2023-02-11T18:17:25.371Z,1.30
2023-02-11T18:19:55.677Z,1.30
2023-02-11T18:22:22.621Z,1.55
2023-02-11T18:24:55.942Z,1.52
2023-02-11T18:27:22.796Z,1.35
2023-02-11T18:29:49.755Z,1.60
2023-02-11T18:32:16.704Z,1.40
2023-02-11T18:34:43.791Z,1.20
2023-02-11T18:37:11.681Z,1.10
2023-02-11T18:39:38.485Z,1.10
2023-02-11T18:42:05.404Z,1.23
2023-02-11T18:44:32.199Z,1.40
2023-02-11T18:46:59.411Z,1.23
2023-02-11T18:49:26.238Z,1.17
2023-02-11T18:51:53.086Z,1.20
2023-02-11T18:54:19.908Z,1.10
2023-02-11T18:56:46.705Z,1.33
2023-02-11T18:59:13.666Z,1.05
2023-02-11T19:01:43.389Z,1.40
2023-02-11T19:04:10.437Z,1.48
2023-02-11T19:06:37.745Z,1.42
2023-02-11T19:09:07.187Z,1.47
2023-02-11T19:11:52.333Z,1.30
2023-02-11T19:14:24.079Z,1.40
2023-02-11T19:16:52.984Z,1.15
2023-02-11T19:19:19.927Z,1.20
2023-02-11T19:21:47.450Z,1.10
2023-02-11T19:24:15.710Z,1.10
2023-02-11T19:26:42.926Z,1.05
2023-02-11T19:29:09.731Z,1.35
2023-02-11T19:31:36.935Z,1.52
2023-02-11T19:34:03.835Z,1.30
2023-02-11T19:36:30.739Z,1.10
2023-02-11T19:39:00.641Z,1.35
2023-02-11T19:41:28.330Z,1.40
2023-02-11T19:43:56.754Z,1.10
2023-02-11T19:46:28.298Z,1.27
2023-02-11T19:48:55.162Z,1.10
2023-02-11T19:51:22.054Z,1.23
2023-02-11T19:53:48.922Z,1.00
2023-02-11T19:56:16.140Z,1.20
2023-02-11T19:58:43.016Z,1.27
2023-02-11T20:01:14.862Z,1.20
2023-02-11T20:03:42.704Z,1.50
2023-02-11T20:06:13.656Z,1.23
2023-02-11T20:08:40.904Z,1.20
2023-02-11T20:11:15.570Z,1.20
2023-02-11T20:13:42.891Z,0.85
2023-02-11T20:16:12.416Z,1.15
2023-02-11T20:18:39.916Z,1.10
2023-02-11T20:21:08.586Z,1.08
2023-02-11T20:23:35.977Z,1.40
2023-02-11T20:26:10.426Z,1.10
2023-02-11T20:28:37.437Z,1.10
2023-02-11T20:31:04.841Z,1.20
2023-02-11T20:33:32.099Z,1.05
2023-02-11T20:35:59.951Z,1.30
2023-02-11T20:38:27.046Z,1.10
2023-02-11T20:40:53.989Z,1.58
2023-02-11T20:43:21.024Z,0.90
2023-02-11T20:45:47.941Z,1.17
2023-02-11T20:48:14.766Z,1.03
2023-02-11T20:50:41.628Z,0.82
2023-02-11T20:53:10.227Z,1.00
2023-02-11T20:55:38.626Z,1.05
2023-02-11T20:58:06.962Z,0.85
2023-02-11T21:00:35.411Z,1.20
2023-02-11T21:03:02.269Z,0.98
2023-02-11T21:05:29.338Z,0.70
2023-02-11T21:07:56.226Z,1.08
2023-02-11T21:10:23.051Z,1.00
2023-02-11T21:12:50.063Z,1.10
2023-02-11T21:15:16.889Z,1.13
2023-02-11T21:17:43.698Z,1.15
2023-02-11T21:20:10.778Z,1.08
2023-02-11T21:22:37.582Z,1.10
2023-02-11T21:25:06.195Z,1.03
2023-02-11T21:27:33.887Z,0.90
2023-02-11T21:30:01.496Z,1.00
2023-02-11T21:32:29.592Z,0.90
2023-02-11T21:34:56.527Z,0.80
2023-02-11T21:37:24.552Z,0.90
2023-02-11T21:39:51.362Z,0.90
2023-02-11T21:42:18.167Z,0.90
2023-02-11T21:44:45.025Z,0.80
2023-02-11T21:47:11.824Z,0.70
2023-02-11T21:49:38.626Z,0.80
2023-02-11T21:52:05.446Z,0.82
2023-02-11T21:54:32.970Z,0.80
2023-02-11T21:57:03.019Z,0.95
2023-02-11T21:59:31.959Z,0.80
2023-02-11T22:01:59.048Z,0.80
2023-02-11T22:04:26.521Z,0.70
2023-02-11T22:06:53.364Z,0.77
2023-02-11T22:09:20.198Z,0.75
2023-02-11T22:11:49.282Z,0.90
2023-02-11T22:14:16.537Z,0.63
2023-02-11T22:16:45.414Z,0.75
2023-02-11T22:19:12.274Z,0.70
2023-02-11T22:21:39.178Z,0.90
2023-02-11T22:24:06.321Z,0.68
2023-02-11T22:26:33.184Z,0.80
2023-02-11T22:29:00.052Z,0.90
2023-02-11T22:31:29.150Z,0.80
2023-02-11T22:33:56.583Z,1.25
2023-02-11T22:36:25.144Z,0.90
2023-02-11T22:38:52.143Z,0.97
2023-02-11T22:41:19.117Z,0.80
2023-02-11T22:43:46.089Z,1.00
2023-02-11T22:46:15.124Z,1.15
2023-02-11T22:48:42.166Z,0.90
2023-02-11T22:51:34.900Z,0.90
2023-02-11T22:54:03.113Z,0.90
2023-02-11T22:56:30.440Z,0.90
2023-02-11T22:58:58.268Z,1.05
2023-02-11T23:01:25.365Z,1.33
2023-02-11T23:03:52.214Z,0.83
2023-02-11T23:06:19.106Z,1.08
2023-02-11T23:08:46.071Z,1.02
2023-02-11T23:11:20.745Z,0.75
2023-02-11T23:13:48.141Z,0.88
2023-02-11T23:16:17.956Z,0.90
2023-02-11T23:18:45.080Z,0.93
2023-02-11T23:21:16.838Z,0.80
2023-02-11T23:23:43.858Z,0.95
2023-02-11T23:26:11.636Z,1.30
2023-02-11T23:28:39.177Z,0.90
2023-02-11T23:31:31.286Z,1.20
2023-02-11T23:33:58.180Z,0.80
2023-02-11T23:36:25.037Z,0.80
2023-02-11T23:38:52.028Z,1.05
2023-02-11T23:41:19.290Z,1.00
2023-02-11T23:43:52.298Z,0.75
2023-02-11T23:46:19.843Z,0.90
2023-02-11T23:48:46.740Z,0.90
2023-02-11T23:51:13.614Z,1.00
2023-02-11T23:53:40.461Z,0.80
2023-02-11T23:56:09.282Z,1.10
2023-02-11T23:58:36.131Z,0.80
